Silver Lion — V2QQ4 — position and weather

sailwx.info

Track history (hours):
 
Tides and Currents Weather Stations Pressure Air Temp Water Temp Dewpoint Dewpoint Depression Visibility Wind Speed Wind Dir Waves Ship Positions

Silver Lion

Last reported at 2017-Sep-21 05:00 UTC. Time now 2017-Sep-21 05:25 UTC.
Position N 45°23' E 037°19'.

Length 127 m; draft 3.4 m.

Type: Cargo ship. MMSI: 304072000.

Date/timePositionNaut miles runAvg speedWind from/ knotsBaromVisibWave heightAir tempDewpointWater temp
2017-Sep-21 05:00N 45°23' E 037°19'0 0.0
2017-Sep-21 04:30N 45°23' E 037°19'0 0.0
2017-Sep-21 03:54N 45°23' E 037°19'0 0.0
2017-Sep-21 02:36N 45°23' E 037°19'0 0.0
2017-Sep-20 22:24N 45°23' E 037°19'0 0.0
2017-Sep-20 07:45N 45°23' E 037°19'0 0.0
2017-Sep-20 07:30N 45°23' E 037°19'0 0.0
2017-Sep-19 22:07N 45°23' E 037°19'0 0.0
2017-Sep-19 21:58N 45°23' E 037°19'0 0.0
2017-Sep-19 21:28N 45°23' E 037°19'0 0.0
2017-Sep-19 20:58N 45°23' E 037°19'0 0.0
2017-Sep-19 19:58N 45°23' E 037°19'0 0.0
2017-Sep-19 19:22N 45°23' E 037°19'0 0.0
2017-Sep-19 16:49N 45°23' E 037°19'4 5.4
2017-Sep-19 16:06N 45°26' E 037°16'1 7.8
2017-Sep-19 16:00N 45°26' E 037°15'4 7.8
2017-Sep-19 15:30N 45°27' E 037°10'4 8.1
2017-Sep-19 15:00N 45°29' E 037°04'4 8.1
2017-Sep-19 14:31N 45°30' E 036°59'4 8.1
2017-Sep-19 14:01N 45°32' E 036°53'4 7.6
2017-Sep-19 13:30N 45°30' E 036°48'4 7.8
2017-Sep-19 13:01N 45°27' E 036°45'4 7.6
2017-Sep-19 12:31N 45°24' E 036°41'3 6.9
2017-Sep-19 12:01N 45°21' E 036°39'3 6.2
2017-Sep-19 11:31N 45°20' E 036°35'4 7.7
2017-Sep-19 11:01N 45°18' E 036°30'3 6.6
2017-Sep-19 10:30N 45°15' E 036°28'2 4.8
2017-Sep-19 10:00N 45°13' E 036°29'2 3.4
2017-Sep-19 09:30N 45°11' E 036°30'0 0.2
2017-Sep-19 08:58N 45°11' E 036°30'0 0.1
2017-Sep-19 08:28N 45°11' E 036°30'0 0.0
2017-Sep-19 07:56N 45°11' E 036°30'0 0.0
2017-Sep-19 07:26N 45°11' E 036°30'0 0.0
2017-Sep-19 06:56N 45°11' E 036°30'0 0.2
2017-Sep-19 06:30N 45°11' E 036°30'3 5.2
2017-Sep-19 06:00N 45°09' E 036°30'6 8.5
2017-Sep-19 05:21N 45°03' E 036°31'19 8.5
2017-Sep-19 03:11N 44°45' E 036°32'207 5.7
2017-Sep-17 15:04N 41°17' E 036°21'0 0.0
2017-Sep-17 13:43N 41°17' E 036°21'  
2017-Sep-14 15:55N 41°18' E 036°22'2 0.1
2017-Sep-13 16:29N 41°20' E 036°23'4 8.5
2017-Sep-13 16:01N 41°24' E 036°25'4 8.6
2017-Sep-13 15:31N 41°28' E 036°27'4 8.1
2017-Sep-13 15:00N 41°32' E 036°28'4 8.2
2017-Sep-13 14:30N 41°36' E 036°28'12 8.2
2017-Sep-13 13:03N 41°48' E 036°28'0 8.2
2017-Sep-13 13:00N 41°48' E 036°28'5 8.1
2017-Sep-13 12:23N 41°53' E 036°28'51 7.9
2017-Sep-13 05:55N 42°45' E 036°28'54 7.9
2017-Sep-12 23:06N 43°39' E 036°28'1 7.9
2017-Sep-12 22:56N 43°40' E 036°28'11 7.8
2017-Sep-12 21:29N 43°51' E 036°28'15 8.1
2017-Sep-12 19:41N 44°06' E 036°28'1 8.0
2017-Sep-12 19:30N 44°07' E 036°28'4 8.0
2017-Sep-12 19:00N 44°11' E 036°28'4 7.9
2017-Sep-12 18:30N 44°15' E 036°28'4 7.9
2017-Sep-12 18:00N 44°19' E 036°28'4 7.8
2017-Sep-12 17:30N 44°23' E 036°28'4 7.6
2017-Sep-12 17:00N 44°27' E 036°28'6 7.6
2017-Sep-12 16:11N 44°33' E 036°28'1 7.6
2017-Sep-12 16:00N 44°34' E 036°28'4 7.4
2017-Sep-12 15:30N 44°38' E 036°28'4 7.3
2017-Sep-12 15:01N 44°42' E 036°28'4 7.1
2017-Sep-12 14:30N 44°45' E 036°28'3 6.7
2017-Sep-12 14:00N 44°49' E 036°28'3 6.7
2017-Sep-12 13:30N 44°52' E 036°28'3 6.8
2017-Sep-12 13:00N 44°55' E 036°28'3 6.8
2017-Sep-12 12:30N 44°59' E 036°29'5 6.7
2017-Sep-12 11:45N 45°04' E 036°29'2 7.0
2017-Sep-12 11:29N 45°06' E 036°30'3 6.7
2017-Sep-12 11:00N 45°09' E 036°28'4 7.1
2017-Sep-12 10:30N 45°12' E 036°28'3 6.9
2017-Sep-12 10:00N 45°16' E 036°28'3 5.8
2017-Sep-12 09:30N 45°18' E 036°30'3 6.2
2017-Sep-12 09:00N 45°20' E 036°34'3 6.4
2017-Sep-12 08:30N 45°21' E 036°38'3 5.9
2017-Sep-12 08:00N 45°24' E 036°40'3 6.5
2017-Sep-12 07:30N 45°27' E 036°41'2 4.5
2017-Sep-12 07:00N 45°29' E 036°40'1 1.9
2017-Sep-12 06:28N 45°29' E 036°39'0 0.0
2017-Sep-12 05:58N 45°29' E 036°39'0 0.0
2017-Sep-12 05:28N 45°29' E 036°39'0 0.0
2017-Sep-12 04:58N 45°29' E 036°39'0 0.0
2017-Sep-12 04:28N 45°29' E 036°39'0 0.0
2017-Sep-12 03:58N 45°29' E 036°39'0 0.0
2017-Sep-12 03:28N 45°29' E 036°39'0 0.5
2017-Sep-12 02:59N 45°30' E 036°39'3 5.5
2017-Sep-12 02:30N 45°32' E 036°39'5 7.9
2017-Sep-12 01:54N 45°37' E 036°40'3 7.9
2017-Sep-12 01:30N 45°40' E 036°40'4 8.1
2017-Sep-12 01:00N 45°44' E 036°43'4 8.0
2017-Sep-12 00:30N 45°47' E 036°45'6 8.0
2017-Sep-11 23:45N 45°53' E 036°49'2 8.0
2017-Sep-11 23:30N 45°55' E 036°51'4 8.0
2017-Sep-11 23:00N 45°58' E 036°53'  
Track history (hours):
 
Tides and Currents Weather Stations Pressure Air Temp Water Temp Dewpoint Dewpoint Depression Visibility Wind Speed Wind Dir Waves Ship Positions

Silver Lion

Last reported at 2017-Sep-21 05:00 UTC. Time now 2017-Sep-21 05:25 UTC.
Position N 45°23' E 037°19'.

Length 127 m; draft 3.4 m.

Type: Cargo ship. MMSI: 304072000.

Date/timePositionNaut miles runAvg speedWind from/ knotsBaromVisibWave heightAir tempDewpointWater temp
2017-Sep-21 05:00N 45°23' E 037°19'0 0.0
2017-Sep-21 04:30N 45°23' E 037°19'0 0.0
2017-Sep-21 03:54N 45°23' E 037°19'0 0.0
2017-Sep-21 02:36N 45°23' E 037°19'0 0.0
2017-Sep-20 22:24N 45°23' E 037°19'0 0.0
2017-Sep-20 07:45N 45°23' E 037°19'0 0.0
2017-Sep-20 07:30N 45°23' E 037°19'0 0.0
2017-Sep-19 22:07N 45°23' E 037°19'0 0.0
2017-Sep-19 21:58N 45°23' E 037°19'0 0.0
2017-Sep-19 21:28N 45°23' E 037°19'0 0.0
2017-Sep-19 20:58N 45°23' E 037°19'0 0.0
2017-Sep-19 19:58N 45°23' E 037°19'0 0.0
2017-Sep-19 19:22N 45°23' E 037°19'0 0.0
2017-Sep-19 16:49N 45°23' E 037°19'4 5.4
2017-Sep-19 16:06N 45°26' E 037°16'1 7.8
2017-Sep-19 16:00N 45°26' E 037°15'4 7.8
2017-Sep-19 15:30N 45°27' E 037°10'4 8.1
2017-Sep-19 15:00N 45°29' E 037°04'4 8.1
2017-Sep-19 14:31N 45°30' E 036°59'4 8.1
2017-Sep-19 14:01N 45°32' E 036°53'4 7.6
2017-Sep-19 13:30N 45°30' E 036°48'4 7.8
2017-Sep-19 13:01N 45°27' E 036°45'4 7.6
2017-Sep-19 12:31N 45°24' E 036°41'3 6.9
2017-Sep-19 12:01N 45°21' E 036°39'3 6.2
2017-Sep-19 11:31N 45°20' E 036°35'4 7.7
2017-Sep-19 11:01N 45°18' E 036°30'3 6.6
2017-Sep-19 10:30N 45°15' E 036°28'2 4.8
2017-Sep-19 10:00N 45°13' E 036°29'2 3.4
2017-Sep-19 09:30N 45°11' E 036°30'0 0.2
2017-Sep-19 08:58N 45°11' E 036°30'0 0.1
2017-Sep-19 08:28N 45°11' E 036°30'0 0.0
2017-Sep-19 07:56N 45°11' E 036°30'0 0.0
2017-Sep-19 07:26N 45°11' E 036°30'0 0.0
2017-Sep-19 06:56N 45°11' E 036°30'0 0.2
2017-Sep-19 06:30N 45°11' E 036°30'3 5.2
2017-Sep-19 06:00N 45°09' E 036°30'6 8.5
2017-Sep-19 05:21N 45°03' E 036°31'19 8.5
2017-Sep-19 03:11N 44°45' E 036°32'207 5.7
2017-Sep-17 15:04N 41°17' E 036°21'0 0.0
2017-Sep-17 13:43N 41°17' E 036°21'  
2017-Sep-14 15:55N 41°18' E 036°22'2 0.1
2017-Sep-13 16:29N 41°20' E 036°23'4 8.5
2017-Sep-13 16:01N 41°24' E 036°25'4 8.6
2017-Sep-13 15:31N 41°28' E 036°27'4 8.1
2017-Sep-13 15:00N 41°32' E 036°28'4 8.2
2017-Sep-13 14:30N 41°36' E 036°28'12 8.2
2017-Sep-13 13:03N 41°48' E 036°28'0 8.2
2017-Sep-13 13:00N 41°48' E 036°28'5 8.1
2017-Sep-13 12:23N 41°53' E 036°28'51 7.9
2017-Sep-13 05:55N 42°45' E 036°28'54 7.9
2017-Sep-12 23:06N 43°39' E 036°28'1 7.9
2017-Sep-12 22:56N 43°40' E 036°28'11 7.8
2017-Sep-12 21:29N 43°51' E 036°28'15 8.1
2017-Sep-12 19:41N 44°06' E 036°28'1 8.0
2017-Sep-12 19:30N 44°07' E 036°28'4 8.0
2017-Sep-12 19:00N 44°11' E 036°28'4 7.9
2017-Sep-12 18:30N 44°15' E 036°28'4 7.9
2017-Sep-12 18:00N 44°19' E 036°28'4 7.8
2017-Sep-12 17:30N 44°23' E 036°28'4 7.6
2017-Sep-12 17:00N 44°27' E 036°28'6 7.6
2017-Sep-12 16:11N 44°33' E 036°28'1 7.6
2017-Sep-12 16:00N 44°34' E 036°28'4 7.4
2017-Sep-12 15:30N 44°38' E 036°28'4 7.3
2017-Sep-12 15:01N 44°42' E 036°28'4 7.1
2017-Sep-12 14:30N 44°45' E 036°28'3 6.7
2017-Sep-12 14:00N 44°49' E 036°28'3 6.7
2017-Sep-12 13:30N 44°52' E 036°28'3 6.8
2017-Sep-12 13:00N 44°55' E 036°28'3 6.8
2017-Sep-12 12:30N 44°59' E 036°29'5 6.7
2017-Sep-12 11:45N 45°04' E 036°29'2 7.0
2017-Sep-12 11:29N 45°06' E 036°30'3 6.7
2017-Sep-12 11:00N 45°09' E 036°28'4 7.1
2017-Sep-12 10:30N 45°12' E 036°28'3 6.9
2017-Sep-12 10:00N 45°16' E 036°28'3 5.8
2017-Sep-12 09:30N 45°18' E 036°30'3 6.2
2017-Sep-12 09:00N 45°20' E 036°34'3 6.4
2017-Sep-12 08:30N 45°21' E 036°38'3 5.9
2017-Sep-12 08:00N 45°24' E 036°40'3 6.5
2017-Sep-12 07:30N 45°27' E 036°41'2 4.5
2017-Sep-12 07:00N 45°29' E 036°40'1 1.9
2017-Sep-12 06:28N 45°29' E 036°39'0 0.0
2017-Sep-12 05:58N 45°29' E 036°39'0 0.0
2017-Sep-12 05:28N 45°29' E 036°39'0 0.0
2017-Sep-12 04:58N 45°29' E 036°39'0 0.0
2017-Sep-12 04:28N 45°29' E 036°39'0 0.0
2017-Sep-12 03:58N 45°29' E 036°39'0 0.0
2017-Sep-12 03:28N 45°29' E 036°39'0 0.5
2017-Sep-12 02:59N 45°30' E 036°39'3 5.5
2017-Sep-12 02:30N 45°32' E 036°39'5 7.9
2017-Sep-12 01:54N 45°37' E 036°40'3 7.9
2017-Sep-12 01:30N 45°40' E 036°40'4 8.1
2017-Sep-12 01:00N 45°44' E 036°43'4 8.0
2017-Sep-12 00:30N 45°47' E 036°45'6 8.0
2017-Sep-11 23:45N 45°53' E 036°49'2 8.0
2017-Sep-11 23:30N 45°55' E 036°51'4 8.0
2017-Sep-11 23:00N 45°58' E 036°53'  

Dump ship's entire track history